메인 페이지
METAR-TAF:

METAR-TAF

공항 :

핼리팩스, 노바스코샤, 캐나다

핼리팩스 스탠필드 국제공항

위도: 44-53N, 경도: 063-30W, 고도: 145m

현재 날씨관측

예보는 37분 전, 10:00시(UTC)에 발표되었습니다.
남남서9kt
온도 3°C
습도 81%
기압 1025 hPa
시정: 24.1km
고도 25000ft 상공 구름 많음

METAR: CYHZ 251000Z 20009KT 15SM BKN250 03/M00 A3027 RMK CS7 SLP255

시각: 07:37 (10:37 UTC)

예보

예보는 1 시간 58분 전, 08:39시(UTC)에 발표되었습니다.
예보 대상 시간: 25일 09시부터 26일 06시까지 (UTC)
남남서7kt
시정: 10km
고도 22000ft 상공 구름 많음
전환 중
25일 13시부터 25일 15시까지 (UTC)
남남서10kt, 순간 최대 풍속 20kt
25일 1800시부터 (UTC)
12kt, 순간 최대 풍속 22kt
시정: 10km
고도 16000ft 상공 구름 많음
26일 0000시부터 (UTC)
15kt
시정: 10km
고도 5000ft 상공 구름 많음
26일 0300시부터 (UTC)
15kt
시정: 10km
고도 2000ft 상공 구름 보통
고도 4000ft 상공 흐림
약한비

TAF: CYHZ 250839Z 2509/2606 20007KT P6SM BKN220 BECMG 2513/2515 20010G20KT FM251800 19012G22KT P6SM BKN160 FM260000 18015KT P6SM BKN050 FM260300 18015KT P6SM -RA SCT020 OVC040 RMK NXT FCST BY 251200Z

4,000개 이상의 공항 관측 자료 및 예보 (METAR 및 TAF 보고).

지도상에서 검색 가능한 기상관측소가 노란 점과 빨간 점으로 표시되어 있습니다.

기상관측소 명을 보려면 표시 위로 마우스를 이동하세요.

날씨 관측과 예보를 보려면 클릭하세요.

지도 변경 : 확대하려면 엑스 표시가 있는 녹색 버튼, 축소하려면 빼기 표시가 있는 녹색 버튼, 다음 페이지의 지도를 보려면 녹색 화살표를 클릭하세요.


METAR-TAF: